createdAt,value
2018-04-23T00:01:15.389Z,25.00
2018-04-23T00:03:45.079Z,23.30
2018-04-23T00:06:15.018Z,24.73
2018-04-23T00:08:45.002Z,23.73
2018-04-23T00:11:15.846Z,22.03
2018-04-23T00:13:45.232Z,21.77
2018-04-23T00:16:14.994Z,19.83
2018-04-23T00:18:44.491Z,21.10
2018-04-23T00:21:15.683Z,18.60
2018-04-23T00:23:55.469Z,106.47
2018-04-23T00:26:25.982Z,19.00
2018-04-23T00:28:54.365Z,17.63
2018-04-23T00:31:24.311Z,17.27
2018-04-23T00:33:59.459Z,17.30
2018-04-23T00:36:29.453Z,17.27
2018-04-23T00:38:57.879Z,14.80
2018-04-23T00:41:31.896Z,14.33
2018-04-23T00:44:04.718Z,15.13
2018-04-23T00:46:34.661Z,13.07
2018-04-23T00:49:04.739Z,14.17
2018-04-23T00:51:36.950Z,14.03
2018-04-23T00:54:13.617Z,12.10
2018-04-23T00:56:46.828Z,13.37
2018-04-23T00:59:16.032Z,12.37
2018-04-23T01:01:46.151Z,13.20
2018-04-23T01:07:10.275Z,12.10
2018-04-23T01:09:40.545Z,12.33
2018-04-23T01:12:11.956Z,12.40
2018-04-23T01:14:40.776Z,11.27
2018-04-23T01:17:10.918Z,11.20
2018-04-23T01:19:42.066Z,12.37
2018-04-23T01:22:13.628Z,12.27
2018-04-23T01:24:43.212Z,10.43
2018-04-23T01:27:13.403Z,10.60
2018-04-23T01:29:47.024Z,10.30
2018-04-23T01:34:56.403Z,10.97
2018-04-23T01:37:25.230Z,10.73
2018-04-23T01:39:55.278Z,11.73
2018-04-23T01:42:28.302Z,11.90
2018-04-23T01:45:01.940Z,11.07
2018-04-23T01:47:47.241Z,10.77
2018-04-23T01:50:15.855Z,11.70
2018-04-23T01:52:44.446Z,11.03
2018-04-23T01:55:13.328Z,10.57
2018-04-23T01:57:45.011Z,10.20
2018-04-23T02:00:13.525Z,9.73
2018-04-23T02:02:42.543Z,9.93
2018-04-23T02:05:11.943Z,10.63
2018-04-23T02:07:41.319Z,10.70
2018-04-23T02:10:13.023Z,11.03
2018-04-23T02:12:44.239Z,10.80
2018-04-23T02:15:13.511Z,10.17
2018-04-23T02:17:45.057Z,11.87
2018-04-23T02:20:15.301Z,9.63
2018-04-23T02:22:44.087Z,10.70
2018-04-23T02:25:13.675Z,10.73
2018-04-23T02:27:43.542Z,10.83
2018-04-23T02:30:11.919Z,10.37
2018-04-23T02:32:41.079Z,10.20
2018-04-23T02:35:13.553Z,10.30
2018-04-23T02:37:41.961Z,10.40
2018-04-23T02:40:12.756Z,10.90
2018-04-23T02:42:43.198Z,10.77
2018-04-23T02:45:11.665Z,10.17
2018-04-23T02:47:40.911Z,11.93
2018-04-23T02:50:09.582Z,10.70
2018-04-23T02:52:39.077Z,10.30
2018-04-23T02:55:07.855Z,10.50
2018-04-23T02:57:36.875Z,10.90
2018-04-23T03:03:01.241Z,10.73
2018-04-23T03:05:35.215Z,10.57
2018-04-23T03:08:14.314Z,10.27
2018-04-23T03:10:44.099Z,9.90
2018-04-23T03:13:12.478Z,11.90
2018-04-23T03:15:40.545Z,10.17
2018-04-23T03:18:10.604Z,10.17
2018-04-23T03:20:45.516Z,10.07
2018-04-23T03:23:16.678Z,10.40
2018-04-23T03:25:46.301Z,10.70
2018-04-23T03:28:16.423Z,10.30
2018-04-23T03:30:45.715Z,11.23
2018-04-23T03:33:15.373Z,11.60
2018-04-23T03:35:48.889Z,10.20
2018-04-23T03:38:18.547Z,10.73
2018-04-23T03:40:47.276Z,10.47
2018-04-23T03:43:16.469Z,10.70
2018-04-23T03:45:45.854Z,10.10
2018-04-23T03:48:16.039Z,10.20
2018-04-23T03:50:49.334Z,11.17
2018-04-23T03:53:17.961Z,10.30
2018-04-23T03:55:47.157Z,11.30
2018-04-23T03:58:17.673Z,10.00
2018-04-23T04:00:53.374Z,9.63
2018-04-23T04:03:35.058Z,9.97
2018-04-23T04:06:04.897Z,11.37
2018-04-23T04:08:33.984Z,9.93
2018-04-23T04:11:02.754Z,9.73
2018-04-23T04:13:32.552Z,9.90
2018-04-23T04:16:01.142Z,9.70
2018-04-23T04:18:29.404Z,10.13
2018-04-23T04:20:59.319Z,10.70
2018-04-23T04:23:27.481Z,10.17
2018-04-23T04:25:55.384Z,10.20
2018-04-23T04:28:24.801Z,9.90
2018-04-23T04:30:53.876Z,10.27
2018-04-23T04:33:22.341Z,9.83
2018-04-23T04:35:51.458Z,10.77
2018-04-23T04:38:20.217Z,9.90
2018-04-23T04:40:49.786Z,10.33
2018-04-23T04:43:19.041Z,10.90
2018-04-23T04:45:49.676Z,10.57
2018-04-23T04:48:20.049Z,10.37
2018-04-23T04:50:50.013Z,9.50
2018-04-23T04:53:19.629Z,10.67
2018-04-23T04:55:49.018Z,10.13
2018-04-23T04:58:18.139Z,10.30
2018-04-23T05:00:47.986Z,11.50
2018-04-23T05:03:16.420Z,10.40
2018-04-23T05:05:46.172Z,10.30
2018-04-23T05:08:19.030Z,9.63
2018-04-23T05:10:51.625Z,10.33
2018-04-23T05:13:20.343Z,9.30
2018-04-23T05:15:49.903Z,9.57
2018-04-23T05:18:20.017Z,9.57
2018-04-23T05:20:51.118Z,9.50
2018-04-23T05:23:19.304Z,10.27
2018-04-23T05:25:47.281Z,10.90
2018-04-23T05:28:19.362Z,11.17
2018-04-23T05:30:59.199Z,10.70
2018-04-23T05:33:33.809Z,9.40
2018-04-23T05:36:06.708Z,10.50
2018-04-23T05:38:36.574Z,10.60
2018-04-23T05:41:06.742Z,9.40
2018-04-23T05:43:37.348Z,10.30
2018-04-23T05:46:07.508Z,9.97
2018-04-23T05:48:35.807Z,9.37
2018-04-23T05:51:07.036Z,10.10
2018-04-23T05:56:23.426Z,9.93
2018-04-23T05:58:54.566Z,9.67
2018-04-23T06:01:33.895Z,9.77
2018-04-23T06:04:04.656Z,10.10
2018-04-23T06:06:34.553Z,10.10
2018-04-23T06:09:03.318Z,10.60
2018-04-23T06:11:31.869Z,10.10
2018-04-23T06:14:01.408Z,10.20
2018-04-23T06:16:30.017Z,9.70
2018-04-23T06:18:58.704Z,9.93
2018-04-23T06:21:27.223Z,10.23
2018-04-23T06:23:56.801Z,10.13
2018-04-23T06:26:25.286Z,9.90
2018-04-23T06:28:53.803Z,10.23
2018-04-23T06:31:23.326Z,10.20
2018-04-23T06:36:27.521Z,10.47
2018-04-23T06:38:55.804Z,9.63
2018-04-23T06:41:24.603Z,9.83
2018-04-23T06:43:52.976Z,9.30
2018-04-23T06:46:21.614Z,10.13
2018-04-23T06:51:33.440Z,10.53
2018-04-23T06:54:03.704Z,9.60
2018-04-23T06:56:34.493Z,9.73
2018-04-23T06:59:03.918Z,10.23
2018-04-23T07:01:33.784Z,11.07
2018-04-23T07:04:02.604Z,10.37
2018-04-23T07:06:32.754Z,9.73
2018-04-23T07:09:03.491Z,9.67
2018-04-23T07:11:34.572Z,10.07
2018-04-23T07:14:03.908Z,10.10
2018-04-23T07:16:33.170Z,10.27
2018-04-23T07:19:04.622Z,9.93
2018-04-23T07:21:33.669Z,11.40
2018-04-23T07:24:02.515Z,10.00
2018-04-23T07:26:31.538Z,10.50
2018-04-23T07:29:01.127Z,9.63
2018-04-23T07:31:30.145Z,9.77
2018-04-23T07:33:58.428Z,10.00
2018-04-23T07:36:27.424Z,10.90
2018-04-23T07:38:56.286Z,9.77
2018-04-23T07:41:24.597Z,9.63
2018-04-23T07:43:53.591Z,9.30
2018-04-23T07:46:25.219Z,10.90
2018-04-23T07:48:52.902Z,9.30
2018-04-23T07:51:23.654Z,9.30
2018-04-23T07:53:59.204Z,9.70
2018-04-23T07:56:29.747Z,11.50
2018-04-23T07:58:58.671Z,10.57
2018-04-23T08:01:27.671Z,9.77
2018-04-23T08:03:58.297Z,10.30
2018-04-23T08:06:28.708Z,10.30
2018-04-23T08:09:07.611Z,9.53
2018-04-23T08:11:37.895Z,10.50
2018-04-23T08:14:06.588Z,10.47
2018-04-23T08:16:37.345Z,9.50
2018-04-23T08:19:11.972Z,9.50
2018-04-23T08:21:51.917Z,9.07
2018-04-23T08:24:32.461Z,9.77
2018-04-23T08:29:49.282Z,9.57
2018-04-23T08:32:19.270Z,9.53
2018-04-23T08:34:47.351Z,9.70
2018-04-23T08:37:17.335Z,9.83
2018-04-23T08:39:46.227Z,10.30
2018-04-23T08:42:14.588Z,9.63
2018-04-23T08:44:43.775Z,8.90
2018-04-23T08:47:12.837Z,8.90
2018-04-23T08:49:41.300Z,10.13
2018-04-23T08:52:09.951Z,9.37
2018-04-23T08:54:39.010Z,10.03
2018-04-23T08:57:07.777Z,9.43
2018-04-23T08:59:36.292Z,9.60
2018-04-23T09:02:04.737Z,9.50
2018-04-23T09:04:33.993Z,10.60
2018-04-23T09:07:02.161Z,9.50
2018-04-23T09:09:31.337Z,9.93
2018-04-23T09:12:01.563Z,10.73
2018-04-23T09:14:31.642Z,9.20
2018-04-23T09:17:00.393Z,9.83
2018-04-23T09:19:28.791Z,10.30
2018-04-23T09:21:57.719Z,10.53
2018-04-23T09:24:26.290Z,9.07
2018-04-23T09:26:54.877Z,9.87
2018-04-23T09:29:25.377Z,8.67
2018-04-23T09:31:54.084Z,11.37
2018-04-23T09:34:22.863Z,9.60
2018-04-23T09:36:51.974Z,9.57
2018-04-23T09:39:22.723Z,9.90
2018-04-23T09:41:55.787Z,10.10
2018-04-23T09:44:24.029Z,9.37
2018-04-23T09:46:52.349Z,8.90
2018-04-23T09:49:22.023Z,8.80
2018-04-23T09:51:51.686Z,10.17
2018-04-23T09:54:19.933Z,9.70
2018-04-23T09:56:49.435Z,9.43
2018-04-23T09:59:18.509Z,9.77
2018-04-23T10:01:47.650Z,9.63
2018-04-23T10:04:16.559Z,9.50
2018-04-23T10:06:45.712Z,9.53
2018-04-23T10:09:15.442Z,9.13
2018-04-23T10:11:44.292Z,9.50
2018-04-23T10:14:12.823Z,10.27
2018-04-23T10:16:41.341Z,8.83
2018-04-23T10:19:10.376Z,11.23
2018-04-23T10:21:38.812Z,10.90
2018-04-23T10:24:07.787Z,9.70
2018-04-23T10:26:36.132Z,10.77
2018-04-23T10:29:04.198Z,10.43
2018-04-23T10:31:32.629Z,9.33
2018-04-23T10:34:01.503Z,10.20
2018-04-23T10:36:31.112Z,9.93
2018-04-23T10:39:09.168Z,9.27
2018-04-23T10:41:42.530Z,9.07
2018-04-23T10:44:14.017Z,9.67
2018-04-23T10:46:43.916Z,11.03
2018-04-23T10:49:13.001Z,9.33
2018-04-23T10:51:41.639Z,8.70
2018-04-23T10:54:10.542Z,10.03
2018-04-23T10:56:39.819Z,10.00
2018-04-23T10:59:08.833Z,9.83
2018-04-23T11:01:37.728Z,9.63
2018-04-23T11:04:06.530Z,9.93
2018-04-23T11:06:35.690Z,10.57
2018-04-23T11:09:04.272Z,10.60
2018-04-23T11:11:34.225Z,12.37
2018-04-23T11:14:02.847Z,11.20
2018-04-23T11:16:31.324Z,10.20
2018-04-23T11:19:00.363Z,9.60
2018-04-23T11:21:29.568Z,10.10
2018-04-23T11:23:58.367Z,9.03
2018-04-23T11:26:29.620Z,9.67
2018-04-23T11:28:58.428Z,8.63
2018-04-23T11:31:26.890Z,8.60
2018-04-23T11:33:55.228Z,9.87
2018-04-23T11:36:24.030Z,9.73
2018-04-23T11:38:52.935Z,8.70
2018-04-23T11:41:21.785Z,10.70
2018-04-23T11:43:52.156Z,9.10
2018-04-23T11:46:21.564Z,9.37
2018-04-23T11:48:49.745Z,9.57
2018-04-23T11:51:19.344Z,9.10
2018-04-23T11:53:48.548Z,10.40
2018-04-23T11:56:17.400Z,10.00
2018-04-23T11:58:46.002Z,9.37
2018-04-23T12:01:14.459Z,9.80
2018-04-23T12:03:43.753Z,8.97
2018-04-23T12:06:12.581Z,9.17
2018-04-23T12:08:40.836Z,9.53
2018-04-23T12:11:11.046Z,11.47
2018-04-23T12:13:40.068Z,14.70
2018-04-23T12:16:09.075Z,11.23
2018-04-23T12:18:40.151Z,10.80
2018-04-23T12:21:09.830Z,11.07
2018-04-23T12:23:40.184Z,11.43
2018-04-23T12:26:08.786Z,11.87
2018-04-23T12:28:36.976Z,12.70
2018-04-23T12:31:08.728Z,12.87
2018-04-23T12:33:38.542Z,12.83
2018-04-23T12:36:07.656Z,13.90
2018-04-23T12:38:37.871Z,12.70
2018-04-23T12:41:06.460Z,12.20
2018-04-23T12:43:34.894Z,37.60
2018-04-23T12:46:03.203Z,35.20
2018-04-23T12:48:31.544Z,29.90
2018-04-23T12:51:00.486Z,29.27
2018-04-23T12:53:30.203Z,31.80
2018-04-23T12:55:59.715Z,35.00
2018-04-23T12:58:29.369Z,36.27
2018-04-23T13:00:58.589Z,36.83
2018-04-23T13:03:28.445Z,36.67
2018-04-23T13:05:58.065Z,36.70
2018-04-23T13:08:26.117Z,36.37
2018-04-23T13:10:55.428Z,34.03
2018-04-23T13:13:26.862Z,32.83
2018-04-23T13:15:55.617Z,34.23
2018-04-23T13:18:24.677Z,35.33
2018-04-23T13:20:53.616Z,32.43
2018-04-23T13:23:21.884Z,30.40
2018-04-23T13:25:50.762Z,31.50
2018-04-23T13:28:19.691Z,29.83
2018-04-23T13:30:49.059Z,30.37
2018-04-23T13:33:19.393Z,30.63
2018-04-23T13:35:51.489Z,28.70
2018-04-23T13:38:20.668Z,30.00
2018-04-23T13:40:49.535Z,28.27
2018-04-23T13:43:18.128Z,28.93
2018-04-23T13:45:46.948Z,27.20
2018-04-23T13:48:17.976Z,26.10
2018-04-23T13:50:46.352Z,25.67
2018-04-23T13:53:14.720Z,25.27
2018-04-23T13:55:43.655Z,26.00
2018-04-23T13:58:12.907Z,26.70
2018-04-23T14:00:44.497Z,24.37
2018-04-23T14:03:13.192Z,26.40
2018-04-23T14:05:41.976Z,24.90
2018-04-23T14:08:18.463Z,23.40
2018-04-23T14:10:56.328Z,23.23
2018-04-23T14:13:26.633Z,25.23
2018-04-23T14:15:55.694Z,23.23
2018-04-23T14:18:28.942Z,22.67
2018-04-23T14:20:57.473Z,23.60
2018-04-23T14:23:25.774Z,22.17
2018-04-23T14:25:55.015Z,22.60
2018-04-23T14:28:23.714Z,22.73
2018-04-23T14:30:54.200Z,22.80
2018-04-23T14:33:23.080Z,22.00
2018-04-23T14:35:52.306Z,20.80
2018-04-23T14:38:20.687Z,22.30
2018-04-23T14:40:49.028Z,21.50
2018-04-23T14:43:18.343Z,20.90
2018-04-23T14:45:46.763Z,21.27
2018-04-23T14:48:15.095Z,21.00
2018-04-23T14:50:43.531Z,21.20
2018-04-23T14:53:12.099Z,20.73
2018-04-23T14:55:40.853Z,19.97
2018-04-23T14:58:09.012Z,22.07
2018-04-23T15:00:38.001Z,21.83
2018-04-23T15:03:07.117Z,20.00
2018-04-23T15:05:38.517Z,20.17
2018-04-23T15:08:08.350Z,19.47
2018-04-23T15:10:38.097Z,20.17
2018-04-23T15:13:06.998Z,18.90
2018-04-23T15:15:38.142Z,19.50
2018-04-23T15:18:07.195Z,20.20
2018-04-23T15:20:35.592Z,24.13
2018-04-23T15:23:04.013Z,19.37
2018-04-23T15:25:32.898Z,22.23
2018-04-23T15:28:01.045Z,21.07
2018-04-23T15:30:30.141Z,21.93
2018-04-23T15:32:59.745Z,22.83
2018-04-23T15:35:28.447Z,23.07
2018-04-23T15:37:56.931Z,22.30
2018-04-23T15:40:25.887Z,23.20
2018-04-23T15:42:54.273Z,23.67
2018-04-23T15:45:22.969Z,23.90
2018-04-23T15:47:51.164Z,25.47
2018-04-23T15:50:24.544Z,24.83
2018-04-23T15:52:53.549Z,24.53
2018-04-23T15:55:21.900Z,25.37
2018-04-23T15:57:50.898Z,26.80
2018-04-23T16:00:19.819Z,25.50
2018-04-23T16:02:50.234Z,26.10
2018-04-23T16:05:18.523Z,26.80
2018-04-23T16:07:46.463Z,28.47
2018-04-23T16:10:17.164Z,28.70
2018-04-23T16:12:45.477Z,26.20
2018-04-23T16:15:13.889Z,27.80
2018-04-23T16:17:42.641Z,25.60
2018-04-23T16:20:11.974Z,26.47
2018-04-23T16:22:41.852Z,27.87
2018-04-23T16:25:10.927Z,25.27
2018-04-23T16:27:41.208Z,21.57
2018-04-23T16:30:11.091Z,21.50
2018-04-23T16:32:40.582Z,22.27
2018-04-23T16:35:09.726Z,19.60
2018-04-23T16:37:39.036Z,21.00
2018-04-23T16:40:08.402Z,19.90
2018-04-23T16:42:36.534Z,21.27
2018-04-23T16:45:05.671Z,20.53
2018-04-23T16:47:35.161Z,20.47
2018-04-23T16:50:04.393Z,19.17
2018-04-23T16:52:34.401Z,18.97
2018-04-23T16:55:04.266Z,19.10
2018-04-23T16:57:33.570Z,20.07
2018-04-23T17:00:03.371Z,19.53
2018-04-23T17:02:34.997Z,18.80
2018-04-23T17:05:03.995Z,17.03
2018-04-23T17:07:32.755Z,17.23
2018-04-23T17:10:02.564Z,17.70
2018-04-23T17:12:34.037Z,17.47
2018-04-23T17:15:05.183Z,19.30
2018-04-23T17:17:33.239Z,17.00
2018-04-23T17:20:01.794Z,18.87
2018-04-23T17:22:30.316Z,16.80
2018-04-23T17:24:58.728Z,17.50
2018-04-23T17:27:28.168Z,16.83
2018-04-23T17:29:56.948Z,17.33
2018-04-23T17:32:26.059Z,16.70
2018-04-23T17:34:54.147Z,17.07
2018-04-23T17:37:22.507Z,15.77
2018-04-23T17:39:50.890Z,16.60
2018-04-23T17:42:20.405Z,16.30
2018-04-23T17:44:49.487Z,15.90
2018-04-23T17:47:17.833Z,16.50
2018-04-23T17:49:47.833Z,14.83
2018-04-23T17:52:16.069Z,15.10
2018-04-23T17:54:44.347Z,14.87
2018-04-23T17:57:14.278Z,15.83
2018-04-23T17:59:42.788Z,15.30
2018-04-23T18:02:12.466Z,15.77
2018-04-23T18:04:41.955Z,14.70
2018-04-23T18:07:09.835Z,14.20
2018-04-23T18:09:39.123Z,13.90
2018-04-23T18:12:11.609Z,15.70
2018-04-23T18:14:40.377Z,14.43
2018-04-23T18:17:10.171Z,14.60
2018-04-23T18:19:43.187Z,14.60
2018-04-23T18:22:12.739Z,14.37
2018-04-23T18:24:43.491Z,16.10
2018-04-23T18:27:11.758Z,14.30
2018-04-23T18:29:39.761Z,15.13
2018-04-23T18:32:07.967Z,14.80
2018-04-23T18:34:36.416Z,14.07
2018-04-23T18:37:06.684Z,15.03
2018-04-23T18:39:35.322Z,15.70
2018-04-23T18:42:04.789Z,16.97
2018-04-23T18:44:33.573Z,14.37
2018-04-23T18:47:02.709Z,14.30
2018-04-23T18:49:31.900Z,14.37
2018-04-23T18:52:01.679Z,15.10
2018-04-23T18:54:30.054Z,15.30
2018-04-23T18:56:58.597Z,14.80
2018-04-23T18:59:27.485Z,14.93
2018-04-23T19:01:56.163Z,14.13
2018-04-23T19:04:25.897Z,13.37
2018-04-23T19:06:54.779Z,14.33
2018-04-23T19:09:23.661Z,13.57
2018-04-23T19:11:52.407Z,14.23
2018-04-23T19:14:20.848Z,14.87
2018-04-23T19:16:50.737Z,14.83
2018-04-23T19:19:20.153Z,14.10
2018-04-23T19:21:48.457Z,13.00
2018-04-23T19:24:16.686Z,13.80
2018-04-23T19:26:45.112Z,13.13
2018-04-23T19:29:14.775Z,13.40
2018-04-23T19:31:43.565Z,13.07
2018-04-23T19:34:12.455Z,14.43
2018-04-23T19:36:40.409Z,13.00
2018-04-23T19:39:08.730Z,12.93
2018-04-23T19:41:38.100Z,13.07
2018-04-23T19:44:07.925Z,12.53
2018-04-23T19:46:38.109Z,12.97
2018-04-23T19:49:07.589Z,13.77
2018-04-23T19:51:35.808Z,13.23
2018-04-23T19:54:04.201Z,13.30
2018-04-23T19:56:33.807Z,14.40
2018-04-23T19:59:03.358Z,13.33
2018-04-23T20:01:33.958Z,14.60
2018-04-23T20:04:04.501Z,12.43
2018-04-23T20:06:33.347Z,12.67
2018-04-23T20:09:01.806Z,13.33
2018-04-23T20:11:30.373Z,17.23
2018-04-23T20:14:00.429Z,17.47
2018-04-23T20:16:31.107Z,19.23
2018-04-23T20:19:00.295Z,20.73
2018-04-23T20:21:29.507Z,20.33
2018-04-23T20:23:58.485Z,19.57
2018-04-23T20:26:27.063Z,18.30
2018-04-23T20:28:56.562Z,18.00
2018-04-23T20:31:25.760Z,18.67
2018-04-23T20:33:55.967Z,19.10
2018-04-23T20:36:25.377Z,17.10
2018-04-23T20:38:56.264Z,18.13
2018-04-23T20:41:25.125Z,19.40
2018-04-23T20:43:53.501Z,20.37
2018-04-23T20:46:22.302Z,18.80
2018-04-23T20:48:51.143Z,20.00
2018-04-23T20:51:20.890Z,17.90
2018-04-23T20:53:49.822Z,18.27
2018-04-23T20:56:18.353Z,18.83
2018-04-23T20:58:46.840Z,21.93
2018-04-23T21:01:16.296Z,20.37
2018-04-23T21:03:45.175Z,19.67
2018-04-23T21:06:14.471Z,19.53
2018-04-23T21:08:44.252Z,20.00
2018-04-23T21:11:13.294Z,20.50
2018-04-23T21:13:46.909Z,17.17
2018-04-23T21:16:16.230Z,17.03
2018-04-23T21:18:45.007Z,18.83
2018-04-23T21:21:13.124Z,16.67
2018-04-23T21:23:42.773Z,17.07
2018-04-23T21:26:11.338Z,17.37
2018-04-23T21:28:40.064Z,17.67
2018-04-23T21:31:10.393Z,15.47
2018-04-23T21:33:40.049Z,14.87
2018-04-23T21:36:09.907Z,17.43
2018-04-23T21:38:39.171Z,15.07
2018-04-23T21:41:09.032Z,15.67
2018-04-23T21:43:37.630Z,15.00
2018-04-23T21:46:06.288Z,16.27
2018-04-23T21:48:34.367Z,16.03
2018-04-23T21:51:02.357Z,15.73
2018-04-23T21:53:31.229Z,15.57
2018-04-23T21:56:00.188Z,14.30
2018-04-23T21:58:28.309Z,14.00
2018-04-23T22:00:57.485Z,13.27
2018-04-23T22:03:27.603Z,14.37
2018-04-23T22:05:56.346Z,15.33
2018-04-23T22:08:25.755Z,14.53
2018-04-23T22:10:54.324Z,14.40
2018-04-23T22:13:22.969Z,13.27
2018-04-23T22:15:51.686Z,14.70
2018-04-23T22:18:21.309Z,14.03
2018-04-23T22:20:51.173Z,14.57
2018-04-23T22:23:20.412Z,13.80
2018-04-23T22:25:49.520Z,12.90
2018-04-23T22:28:20.431Z,14.13
2018-04-23T22:30:49.059Z,73.47
2018-04-23T22:33:18.889Z,75.40
2018-04-23T22:35:49.494Z,65.43
2018-04-23T22:38:18.743Z,73.17
2018-04-23T22:40:47.377Z,71.87
2018-04-23T22:43:15.831Z,78.03
2018-04-23T22:45:45.937Z,77.07
2018-04-23T22:48:17.127Z,72.70
2018-04-23T22:50:45.654Z,73.60
2018-04-23T22:53:15.570Z,74.60
2018-04-23T22:55:44.502Z,71.33
2018-04-23T22:58:12.612Z,77.83
2018-04-23T23:00:40.900Z,75.30
2018-04-23T23:03:09.606Z,71.43
2018-04-23T23:05:37.923Z,73.50
2018-04-23T23:08:06.393Z,70.20
2018-04-23T23:10:36.048Z,76.03
2018-04-23T23:13:05.060Z,72.57
2018-04-23T23:15:34.384Z,13.93
2018-04-23T23:18:04.902Z,14.90
2018-04-23T23:20:41.473Z,15.90
2018-04-23T23:23:10.539Z,16.40
2018-04-23T23:25:40.707Z,17.13
2018-04-23T23:28:11.013Z,13.37
2018-04-23T23:30:39.444Z,14.67
2018-04-23T23:33:09.822Z,14.20
2018-04-23T23:35:40.414Z,13.93
2018-04-23T23:38:10.403Z,13.60
2018-04-23T23:40:38.911Z,15.30
2018-04-23T23:43:09.093Z,13.40
2018-04-23T23:45:43.464Z,13.70
2018-04-23T23:50:47.259Z,18.40
2018-04-23T23:53:23.557Z,14.87
2018-04-23T23:55:59.054Z,15.00
2018-04-23T23:58:31.838Z,14.50
